createdAt,value
2023-01-15T00:00:53.602Z,98270.06
2023-01-15T00:03:25.538Z,98260.00
2023-01-15T00:06:02.378Z,98260.41
2023-01-15T00:08:34.072Z,98252.78
2023-01-15T00:11:06.411Z,98242.72
2023-01-15T00:13:38.128Z,98242.31
2023-01-15T00:16:15.804Z,98243.78
2023-01-15T00:18:58.026Z,98245.50
2023-01-15T00:21:29.983Z,98235.13
2023-01-15T00:24:21.671Z,98223.78
2023-01-15T00:27:12.133Z,98231.13
2023-01-15T00:29:43.868Z,98226.47
2023-01-15T00:32:16.760Z,98226.72
2023-01-15T00:34:48.431Z,98217.63
2023-01-15T00:37:20.189Z,98207.47
2023-01-15T00:39:52.211Z,98221.88
2023-01-15T00:42:23.933Z,98212.63
2023-01-15T00:44:55.701Z,98196.41
2023-01-15T00:47:27.445Z,98200.31
2023-01-15T00:49:59.205Z,98206.84
2023-01-15T00:52:31.567Z,98197.94
2023-01-15T00:55:03.821Z,98212.53
2023-01-15T00:57:35.637Z,98204.22
2023-01-15T01:00:08.414Z,98197.72
2023-01-15T01:02:40.114Z,98199.38
2023-01-15T01:05:12.838Z,98193.50
2023-01-15T01:07:44.561Z,98190.03
2023-01-15T01:10:17.075Z,98184.38
2023-01-15T01:12:51.868Z,98181.38
2023-01-15T01:15:23.571Z,98185.81
2023-01-15T01:17:55.275Z,98175.81
2023-01-15T01:20:28.182Z,98165.56
2023-01-15T01:22:59.935Z,98162.34
2023-01-15T01:25:31.680Z,98165.78
2023-01-15T01:28:03.565Z,98174.13
2023-01-15T01:30:35.241Z,98167.84
2023-01-15T01:33:07.388Z,98168.25
2023-01-15T01:35:39.099Z,98165.25
2023-01-15T01:38:13.748Z,98156.13
2023-01-15T01:40:45.345Z,98151.31
2023-01-15T01:43:26.280Z,98146.84
2023-01-15T01:45:58.003Z,98137.72
2023-01-15T01:48:34.466Z,98127.63
2023-01-15T01:51:06.230Z,98134.13
2023-01-15T01:53:38.818Z,98117.72
2023-01-15T01:56:11.794Z,98121.81
2023-01-15T01:58:46.023Z,98125.50
2023-01-15T02:01:18.184Z,98120.81
2023-01-15T02:03:50.606Z,98124.06
2023-01-15T02:06:24.167Z,98115.16
2023-01-15T02:08:56.933Z,98103.97
2023-01-15T02:11:30.581Z,98096.69
2023-01-15T02:14:17.918Z,98108.88
2023-01-15T02:16:53.804Z,98105.84
2023-01-15T02:19:52.379Z,98100.78
2023-01-15T02:22:48.481Z,98094.72
2023-01-15T02:25:33.924Z,98089.44
2023-01-15T02:28:21.476Z,98084.44
2023-01-15T02:31:12.596Z,98089.13
2023-01-15T02:33:52.171Z,98087.53
2023-01-15T02:36:29.233Z,98087.94
2023-01-15T02:39:09.049Z,98073.53
2023-01-15T02:41:47.890Z,98085.31
2023-01-15T02:44:23.498Z,98068.88
2023-01-15T02:47:00.646Z,98083.50
2023-01-15T02:49:34.456Z,98091.25
2023-01-15T02:52:35.868Z,98074.38
2023-01-15T02:55:26.106Z,98078.03
2023-01-15T02:58:01.703Z,98067.28
2023-01-15T03:00:41.360Z,98061.81
2023-01-15T03:03:46.937Z,98075.00
2023-01-15T03:06:37.092Z,98066.47
2023-01-15T03:09:10.300Z,98051.44
2023-01-15T03:12:02.766Z,98051.44
2023-01-15T03:14:57.261Z,98058.34
2023-01-15T03:17:38.482Z,98042.13
2023-01-15T03:20:19.973Z,98043.72
2023-01-15T03:23:00.712Z,98032.13
2023-01-15T03:25:45.930Z,98035.41
2023-01-15T03:28:24.039Z,98031.13
2023-01-15T03:30:55.804Z,98026.25
2023-01-15T03:33:30.060Z,98015.69
2023-01-15T03:36:03.677Z,98021.78
2023-01-15T03:38:47.332Z,98004.09
2023-01-15T03:41:55.940Z,98003.50
2023-01-15T03:44:33.540Z,98001.25
2023-01-15T03:47:20.267Z,97993.94
2023-01-15T03:50:00.717Z,97995.97
2023-01-15T03:53:00.333Z,97987.66
2023-01-15T03:55:45.798Z,97981.38
2023-01-15T03:58:29.901Z,97981.56
2023-01-15T04:01:05.963Z,97975.66
2023-01-15T04:03:38.557Z,97971.63
2023-01-15T04:06:11.668Z,97975.47
2023-01-15T04:08:47.035Z,97960.44
2023-01-15T04:11:26.666Z,97954.75
2023-01-15T04:14:06.765Z,97961.44
2023-01-15T04:17:04.841Z,97962.69
2023-01-15T04:19:37.946Z,97951.50
2023-01-15T04:22:12.931Z,97948.06
2023-01-15T04:24:44.647Z,97941.75
2023-01-15T04:27:16.428Z,97941.97
2023-01-15T04:29:48.537Z,97938.94
2023-01-15T04:32:20.241Z,97938.72
2023-01-15T04:34:51.940Z,97950.50
2023-01-15T04:37:23.639Z,97944.81
2023-01-15T04:39:55.370Z,97929.16
2023-01-15T04:42:46.017Z,97940.34
2023-01-15T04:45:17.899Z,97932.63
2023-01-15T04:47:49.581Z,97934.88
2023-01-15T04:50:22.266Z,97925.50
2023-01-15T04:52:53.904Z,97938.31
2023-01-15T04:55:25.611Z,97934.44
2023-01-15T04:57:57.325Z,97933.00
2023-01-15T05:00:29.099Z,97943.00
2023-01-15T05:03:03.656Z,97936.06
2023-01-15T05:05:35.397Z,97927.34
2023-01-15T05:08:07.028Z,97929.59
2023-01-15T05:10:38.764Z,97923.88
2023-01-15T05:13:10.564Z,97910.88
2023-01-15T05:15:42.789Z,97930.78
2023-01-15T05:18:15.269Z,97927.34
2023-01-15T05:20:46.997Z,97925.13
2023-01-15T05:23:18.732Z,97928.97
2023-01-15T05:25:53.239Z,97923.88
2023-01-15T05:28:25.015Z,97916.78
2023-01-15T05:30:56.741Z,97914.56
2023-01-15T05:33:28.489Z,97924.50
2023-01-15T05:36:06.942Z,97936.06
2023-01-15T05:38:39.135Z,97919.41
2023-01-15T05:41:31.832Z,97926.53
2023-01-15T05:44:11.295Z,97916.56
2023-01-15T05:46:43.884Z,97908.88
2023-01-15T05:49:18.696Z,97914.75
2023-01-15T05:51:51.258Z,97899.72
2023-01-15T05:54:27.851Z,97898.50
2023-01-15T05:57:01.368Z,97905.63
2023-01-15T05:59:33.901Z,97898.91
2023-01-15T06:02:05.882Z,97888.34
2023-01-15T06:04:37.659Z,97905.00
2023-01-15T06:07:09.662Z,97928.34
2023-01-15T06:09:41.433Z,97926.53
2023-01-15T06:12:13.100Z,97904.81
2023-01-15T06:14:44.812Z,97902.78
2023-01-15T06:17:16.487Z,97887.34
2023-01-15T06:19:48.191Z,97894.63
2023-01-15T06:22:19.927Z,97884.50
2023-01-15T06:24:54.577Z,97880.22
2023-01-15T06:27:26.263Z,97893.22
2023-01-15T06:29:58.990Z,97882.69
2023-01-15T06:32:30.659Z,97889.59
2023-01-15T06:35:02.339Z,97886.94
2023-01-15T06:37:34.059Z,97891.81
2023-01-15T06:40:06.371Z,97887.34
2023-01-15T06:42:59.447Z,97876.78
2023-01-15T06:45:56.275Z,97878.41
2023-01-15T06:48:28.389Z,97886.53
2023-01-15T06:51:00.376Z,97883.25
2023-01-15T06:53:32.044Z,97879.63
2023-01-15T06:56:03.705Z,97877.19
2023-01-15T06:58:36.308Z,97878.59
2023-01-15T07:01:13.333Z,97875.97
2023-01-15T07:03:45.118Z,97868.44
2023-01-15T07:06:16.869Z,97866.41
2023-01-15T07:08:48.587Z,97862.16
2023-01-15T07:11:20.250Z,97875.97
2023-01-15T07:14:05.771Z,97865.41
2023-01-15T07:16:37.863Z,97875.34
2023-01-15T07:19:09.605Z,97873.53
2023-01-15T07:21:41.651Z,97874.34
2023-01-15T07:24:14.021Z,97866.59
2023-01-15T07:26:46.451Z,97869.88
2023-01-15T07:29:21.515Z,97877.97
2023-01-15T07:31:53.881Z,97874.53
2023-01-15T07:34:25.709Z,97878.41
2023-01-15T07:36:58.725Z,97877.38
2023-01-15T07:39:31.670Z,97871.69
2023-01-15T07:42:22.399Z,97869.88
2023-01-15T07:45:13.147Z,97875.97
2023-01-15T07:48:03.389Z,97877.97
2023-01-15T07:50:35.149Z,97885.09
2023-01-15T07:53:07.002Z,97871.06
2023-01-15T07:55:38.926Z,97868.63
2023-01-15T07:58:10.716Z,97873.91
2023-01-15T08:00:42.514Z,97863.16
2023-01-15T08:03:15.248Z,97842.03
2023-01-15T08:05:49.848Z,97843.03
2023-01-15T08:08:21.558Z,97831.88
2023-01-15T08:11:11.901Z,97833.28
2023-01-15T08:14:02.261Z,97842.63
2023-01-15T08:16:37.285Z,97844.66
2023-01-15T08:19:09.084Z,97849.31
2023-01-15T08:21:43.783Z,97848.31
2023-01-15T08:24:15.310Z,97848.72
2023-01-15T08:26:47.076Z,97851.34
2023-01-15T08:29:22.118Z,97839.34
2023-01-15T08:31:53.900Z,97842.59
2023-01-15T08:34:27.577Z,97842.81
2023-01-15T08:37:02.252Z,97833.44
2023-01-15T08:39:35.334Z,97832.59
2023-01-15T08:42:10.709Z,97842.16
2023-01-15T08:44:42.411Z,97857.38
2023-01-15T08:47:15.610Z,97840.31
2023-01-15T08:49:48.361Z,97844.16
2023-01-15T08:52:20.106Z,97849.81
2023-01-15T08:54:51.766Z,97841.31
2023-01-15T08:57:23.484Z,97838.88
2023-01-15T08:59:57.922Z,97833.16
2023-01-15T09:02:29.887Z,97826.84
2023-01-15T09:05:01.718Z,97831.09
2023-01-15T09:07:35.427Z,97811.38
2023-01-15T09:10:07.694Z,97825.00
2023-01-15T09:12:42.136Z,97834.34
2023-01-15T09:15:13.890Z,97833.72
2023-01-15T09:17:45.635Z,97831.06
2023-01-15T09:20:17.586Z,97830.63
2023-01-15T09:22:49.673Z,97827.56
2023-01-15T09:25:23.969Z,97838.72
2023-01-15T09:27:56.429Z,97827.34
2023-01-15T09:30:28.447Z,97821.03
2023-01-15T09:33:00.128Z,97824.09
2023-01-15T09:35:31.856Z,97818.78
2023-01-15T09:38:03.921Z,97806.16
2023-01-15T09:40:57.260Z,97823.25
2023-01-15T09:43:52.213Z,97801.06
2023-01-15T09:46:34.690Z,97808.56
2023-01-15T09:49:26.291Z,97803.28
2023-01-15T09:52:33.262Z,97811.00
2023-01-15T09:55:11.331Z,97806.94
2023-01-15T09:57:46.342Z,97808.56
2023-01-15T10:00:28.057Z,97792.25
2023-01-15T10:03:29.223Z,97810.56
2023-01-15T10:06:37.638Z,97792.81
2023-01-15T10:09:18.083Z,97782.06
2023-01-15T10:12:18.785Z,97780.03
2023-01-15T10:14:58.230Z,97779.59
2023-01-15T10:17:42.325Z,97796.66
2023-01-15T10:20:44.471Z,97795.75
2023-01-15T10:23:22.399Z,97794.88
2023-01-15T10:26:40.382Z,97781.25
2023-01-15T10:29:52.975Z,97794.00
2023-01-15T10:32:40.788Z,97792.81
2023-01-15T10:35:46.409Z,97794.88
2023-01-15T10:38:35.196Z,97795.19
2023-01-15T10:41:19.739Z,97804.53
2023-01-15T10:44:02.817Z,97805.38
2023-01-15T10:46:38.580Z,97813.28
2023-01-15T10:49:16.139Z,97816.22
2023-01-15T10:51:54.471Z,97806.94
2023-01-15T10:54:55.403Z,97806.59
2023-01-15T10:57:44.206Z,97803.13
2023-01-15T11:00:17.152Z,97816.63
2023-01-15T11:03:17.902Z,97815.03
2023-01-15T11:05:49.914Z,97834.72
2023-01-15T11:11:55.148Z,97822.41
2023-01-15T11:14:57.020Z,97819.03
2023-01-15T11:17:52.194Z,97823.53
2023-01-15T11:20:34.973Z,97826.38
2023-01-15T11:23:12.874Z,97816.00
2023-01-15T11:26:02.409Z,97815.97
2023-01-15T11:28:43.286Z,97820.25
2023-01-15T11:31:16.192Z,97831.63
2023-01-15T11:34:03.877Z,97837.31
2023-01-15T11:36:35.584Z,97840.19
2023-01-15T11:39:27.636Z,97838.38
2023-01-15T11:42:23.737Z,97842.84
2023-01-15T11:45:16.599Z,97852.03
2023-01-15T11:48:14.500Z,97860.41
2023-01-15T11:51:01.085Z,97864.09
2023-01-15T11:53:38.735Z,97856.34
2023-01-15T11:56:17.863Z,97858.81
2023-01-15T11:58:54.026Z,97868.56
2023-01-15T12:01:34.948Z,97864.09
2023-01-15T12:04:34.384Z,97861.41
2023-01-15T12:07:13.137Z,97872.16
2023-01-15T12:10:21.940Z,97869.13
2023-01-15T12:13:51.018Z,97888.91
2023-01-15T12:16:44.252Z,97906.75
2023-01-15T12:19:47.694Z,97908.03
2023-01-15T12:22:35.467Z,97913.75
2023-01-15T12:25:13.125Z,97918.81
2023-01-15T12:28:11.986Z,97937.63
2023-01-15T12:31:05.156Z,97941.03
2023-01-15T12:34:09.305Z,97959.44
2023-01-15T12:37:09.820Z,97957.34
2023-01-15T12:40:24.523Z,97953.63
2023-01-15T12:43:15.760Z,97965.75
2023-01-15T12:45:52.421Z,97981.69
2023-01-15T12:48:30.345Z,97986.88
2023-01-15T12:51:04.659Z,97982.72
2023-01-15T12:53:45.188Z,97988.59
2023-01-15T12:56:34.161Z,97990.28
2023-01-15T12:59:22.313Z,98013.09
2023-01-15T13:02:20.392Z,98016.38
2023-01-15T13:04:57.633Z,98021.81
2023-01-15T13:07:38.276Z,98031.53
2023-01-15T13:10:20.386Z,98051.53
2023-01-15T13:12:56.726Z,98049.47
2023-01-15T13:15:38.059Z,98051.63
2023-01-15T13:18:51.163Z,98053.84
2023-01-15T13:21:31.876Z,98049.41
2023-01-15T13:24:21.896Z,98055.84
2023-01-15T13:27:15.339Z,98057.88
2023-01-15T13:29:54.985Z,98038.44
2023-01-15T13:32:36.185Z,98053.47
2023-01-15T13:35:19.826Z,98071.34
2023-01-15T13:37:57.336Z,98075.59
2023-01-15T13:40:38.216Z,98076.03
2023-01-15T13:43:40.716Z,98079.91
2023-01-15T13:46:19.333Z,98095.34
2023-01-15T13:48:52.407Z,98093.31
2023-01-15T13:51:27.416Z,98094.78
2023-01-15T13:54:01.073Z,98097.22
2023-01-15T13:56:36.700Z,98093.59
2023-01-15T13:59:42.894Z,98105.72
2023-01-15T14:02:28.596Z,98112.63
2023-01-15T14:05:11.761Z,98119.94
2023-01-15T14:07:44.590Z,98124.16
2023-01-15T14:10:22.043Z,98140.19
2023-01-15T14:13:30.356Z,98155.72
2023-01-15T14:16:08.098Z,98168.59
2023-01-15T14:19:10.617Z,98166.09
2023-01-15T14:22:03.842Z,98178.69
2023-01-15T14:24:58.561Z,98196.88
2023-01-15T14:27:36.305Z,98193.16
2023-01-15T14:30:24.901Z,98199.78
2023-01-15T14:33:27.632Z,98201.78
2023-01-15T14:36:11.388Z,98194.34
2023-01-15T14:38:49.995Z,98190.44
2023-01-15T14:41:30.916Z,98195.94
2023-01-15T14:44:03.434Z,98194.31
2023-01-15T14:46:37.751Z,98195.13
2023-01-15T14:49:30.269Z,98195.22
2023-01-15T14:52:04.805Z,98204.31
2023-01-15T14:54:39.921Z,98206.94
2023-01-15T14:57:15.342Z,98221.72
2023-01-15T14:59:46.968Z,98242.56
2023-01-15T15:02:41.057Z,98223.16
2023-01-15T15:05:18.694Z,98244.84
2023-01-15T15:07:55.355Z,98259.09
2023-01-15T15:10:37.841Z,98264.34
2023-01-15T15:13:18.928Z,98264.34
2023-01-15T15:16:05.777Z,98279.69
2023-01-15T15:18:40.249Z,98278.16
2023-01-15T15:21:26.766Z,98290.41
2023-01-15T15:24:23.080Z,98283.34
2023-01-15T15:26:57.789Z,98286.78
2023-01-15T15:29:29.397Z,98297.13
2023-01-15T15:32:03.662Z,98302.41
2023-01-15T15:34:40.226Z,98304.06
2023-01-15T15:37:25.266Z,98310.34
2023-01-15T15:40:05.002Z,98304.63
2023-01-15T15:42:59.565Z,98305.44
2023-01-15T15:45:50.654Z,98300.00
2023-01-15T15:48:41.893Z,98313.06
2023-01-15T15:51:34.040Z,98311.59
2023-01-15T15:54:16.534Z,98314.38
2023-01-15T15:56:49.703Z,98327.94
2023-01-15T15:59:29.164Z,98324.31
2023-01-15T16:02:34.317Z,98311.03
2023-01-15T16:05:31.483Z,98319.31
2023-01-15T16:08:17.980Z,98328.56
2023-01-15T16:10:52.567Z,98325.72
2023-01-15T16:13:35.837Z,98325.81
2023-01-15T16:16:12.714Z,98320.47
2023-01-15T16:18:47.526Z,98327.03
2023-01-15T16:21:23.616Z,98317.25
2023-01-15T16:24:00.322Z,98321.91
2023-01-15T16:26:42.842Z,98324.25
2023-01-15T16:29:27.191Z,98313.47
2023-01-15T16:31:59.980Z,98312.88
2023-01-15T16:34:34.364Z,98320.94
2023-01-15T16:37:36.720Z,98325.22
2023-01-15T16:40:16.272Z,98338.00
2023-01-15T16:42:48.792Z,98352.31
2023-01-15T16:45:27.727Z,98365.75
2023-01-15T16:48:08.510Z,98367.59
2023-01-15T16:50:42.277Z,98374.53
2023-01-15T16:53:38.119Z,98379.16
2023-01-15T16:56:38.717Z,98381.72
2023-01-15T16:59:21.013Z,98376.03
2023-01-15T17:01:57.028Z,98380.38
2023-01-15T17:04:35.682Z,98378.72
2023-01-15T17:07:18.323Z,98379.72
2023-01-15T17:09:55.767Z,98368.38
2023-01-15T17:12:42.306Z,98369.53
2023-01-15T17:15:16.946Z,98380.22
2023-01-15T17:17:50.627Z,98372.63
2023-01-15T17:20:29.985Z,98379.03
2023-01-15T17:23:01.748Z,98376.09
2023-01-15T17:25:37.685Z,98387.81
2023-01-15T17:28:12.741Z,98388.13
2023-01-15T17:30:47.596Z,98398.34
2023-01-15T17:33:21.039Z,98402.47
2023-01-15T17:35:54.974Z,98404.94
2023-01-15T17:38:26.662Z,98408.56
2023-01-15T17:40:59.395Z,98413.81
2023-01-15T17:43:35.357Z,98419.41
2023-01-15T17:46:10.741Z,98423.38
2023-01-15T17:48:42.948Z,98426.31
2023-01-15T17:51:15.793Z,98432.06
2023-01-15T17:53:47.853Z,98450.28
2023-01-15T17:56:38.050Z,98446.19
2023-01-15T17:59:30.809Z,98447.00
2023-01-15T18:02:26.724Z,98446.03
2023-01-15T18:05:19.598Z,98444.56
2023-01-15T18:07:53.298Z,98456.72
2023-01-15T18:10:25.355Z,98461.81
2023-01-15T18:12:57.010Z,98459.66
2023-01-15T18:15:31.986Z,98469.00
2023-01-15T18:18:03.905Z,98477.03
2023-01-15T18:20:35.921Z,98495.91
2023-01-15T18:23:08.739Z,98498.34
2023-01-15T18:25:46.188Z,98504.41
2023-01-15T18:28:17.886Z,98501.16
2023-01-15T18:30:49.560Z,98501.47
2023-01-15T18:33:21.572Z,98490.81
2023-01-15T18:36:08.386Z,98490.16
2023-01-15T18:38:43.760Z,98490.34
2023-01-15T18:41:39.919Z,98489.38
2023-01-15T18:44:33.028Z,98494.59
2023-01-15T18:47:17.759Z,98496.56
2023-01-15T18:49:53.806Z,98491.16
2023-01-15T18:52:48.988Z,98495.41
2023-01-15T18:55:26.632Z,98500.34
2023-01-15T18:57:58.403Z,98488.53
2023-01-15T19:00:32.006Z,98511.47
2023-01-15T19:03:04.700Z,98509.47
2023-01-15T19:05:38.772Z,98510.13
2023-01-15T19:08:13.074Z,98501.25
2023-01-15T19:10:47.085Z,98486.50
2023-01-15T19:13:21.379Z,98479.06
2023-01-15T19:16:14.914Z,98472.22
2023-01-15T19:18:53.435Z,98468.56
2023-01-15T19:22:10.550Z,98467.25
2023-01-15T19:24:42.221Z,98462.00
2023-01-15T19:27:14.011Z,98469.03
2023-01-15T19:29:45.744Z,98453.63
2023-01-15T19:32:17.471Z,98462.31
2023-01-15T19:34:51.754Z,98453.63
2023-01-15T19:37:27.938Z,98460.66
2023-01-15T19:40:04.205Z,98458.88
2023-01-15T19:42:54.576Z,98453.63
2023-01-15T19:45:44.780Z,98447.41
2023-01-15T19:48:39.079Z,98448.69
2023-01-15T19:51:10.829Z,98452.94
2023-01-15T19:53:42.539Z,98446.25
2023-01-15T19:56:14.254Z,98446.25
2023-01-15T19:58:47.931Z,98453.91
2023-01-15T20:01:19.711Z,98447.66
2023-01-15T20:03:51.471Z,98450.91
2023-01-15T20:06:23.203Z,98446.84
2023-01-15T20:08:55.675Z,98446.97
2023-01-15T20:11:48.270Z,98446.00
2023-01-15T20:14:21.074Z,98452.22
2023-01-15T20:16:52.746Z,98455.78
2023-01-15T20:19:27.331Z,98461.66
2023-01-15T20:22:01.849Z,98463.44
2023-01-15T20:24:36.499Z,98467.88
2023-01-15T20:27:09.087Z,98463.75
2023-01-15T20:29:49.855Z,98469.16
2023-01-15T20:32:21.652Z,98475.38
2023-01-15T20:34:57.353Z,98465.88
2023-01-15T20:37:29.047Z,98483.22
2023-01-15T20:40:00.858Z,98473.88
2023-01-15T20:42:53.628Z,98478.81
2023-01-15T20:45:28.320Z,98481.22
2023-01-15T20:48:12.157Z,98476.13
2023-01-15T20:51:01.123Z,98469.09
2023-01-15T20:53:34.847Z,98477.94
2023-01-15T20:56:14.993Z,98477.09
2023-01-15T20:58:47.126Z,98473.84
2023-01-15T21:01:21.280Z,98468.75
2023-01-15T21:03:55.785Z,98469.72
2023-01-15T21:06:29.599Z,98455.31
2023-01-15T21:09:01.677Z,98457.13
2023-01-15T21:11:33.536Z,98448.44
2023-01-15T21:14:05.333Z,98448.59
2023-01-15T21:16:38.068Z,98443.50
2023-01-15T21:19:09.849Z,98429.56
2023-01-15T21:21:41.571Z,98430.25
2023-01-15T21:24:13.340Z,98417.97
2023-01-15T21:26:51.840Z,98417.00
2023-01-15T21:29:24.409Z,98412.59
2023-01-15T21:31:56.116Z,98418.97
2023-01-15T21:34:30.684Z,98418.63
2023-01-15T21:37:02.446Z,98422.41
2023-01-15T21:39:34.825Z,98422.41
2023-01-15T21:42:33.964Z,98422.06
2023-01-15T21:45:07.748Z,98411.47
2023-01-15T21:47:41.432Z,98411.28
2023-01-15T21:50:13.585Z,98406.88
2023-01-15T21:52:45.353Z,98413.91
2023-01-15T21:55:21.025Z,98412.09
2023-01-15T21:58:21.223Z,98405.69
2023-01-15T22:00:52.756Z,98407.81
2023-01-15T22:03:24.492Z,98416.16
2023-01-15T22:05:56.165Z,98410.59
2023-01-15T22:08:27.792Z,98406.84
2023-01-15T22:11:03.904Z,98396.25
2023-01-15T22:13:36.802Z,98404.38
2023-01-15T22:16:09.766Z,98404.88
2023-01-15T22:19:05.623Z,98407.00
2023-01-15T22:21:38.227Z,98413.06
2023-01-15T22:24:16.039Z,98404.88
2023-01-15T22:26:54.661Z,98401.28
2023-01-15T22:29:34.262Z,98403.41
2023-01-15T22:32:09.771Z,98402.75
2023-01-15T22:34:44.327Z,98402.44
2023-01-15T22:37:22.107Z,98401.63
2023-01-15T22:39:53.762Z,98399.66
2023-01-15T22:42:27.488Z,98397.69
2023-01-15T22:45:00.609Z,98398.69
2023-01-15T22:47:33.259Z,98387.38
2023-01-15T22:50:10.062Z,98380.84
2023-01-15T22:52:46.644Z,98373.47
2023-01-15T22:55:20.637Z,98362.53
2023-01-15T22:57:52.365Z,98358.06
2023-01-15T23:00:24.189Z,98360.69
2023-01-15T23:03:02.131Z,98345.00
2023-01-15T23:05:38.837Z,98364.78
2023-01-15T23:08:11.325Z,98354.00
2023-01-15T23:10:45.859Z,98345.16
2023-01-15T23:13:17.621Z,98349.56
2023-01-15T23:16:04.328Z,98345.00
2023-01-15T23:18:40.261Z,98346.47
2023-01-15T23:21:15.758Z,98336.84
2023-01-15T23:23:47.589Z,98334.72
2023-01-15T23:26:20.782Z,98326.69
2023-01-15T23:28:52.846Z,98326.19
2023-01-15T23:31:25.371Z,98329.91
2023-01-15T23:33:57.174Z,98327.00
2023-01-15T23:36:30.865Z,98327.16
2023-01-15T23:39:02.875Z,98333.34
2023-01-15T23:41:53.399Z,98328.59
2023-01-15T23:44:43.566Z,98329.72
2023-01-15T23:47:18.254Z,98315.19
2023-01-15T23:49:50.052Z,98311.59
2023-01-15T23:52:21.698Z,98304.41
2023-01-15T23:54:53.421Z,98301.63
2023-01-15T23:57:26.223Z,98292.66
2023-01-15T23:59:58.960Z,98289.22
